sensor_id;sensor_type;location;lat;lon;timestamp;P1;P2;P0
49064;PMS5003;34876;51.464;-0.150;2023-08-12T00:04:15;4;3;
49064;PMS5003;34876;51.464;-0.150;2023-08-12T00:06:50;2;2;
49064;PMS5003;34876;51.464;-0.150;2023-08-12T00:09:47;4;3;
49064;PMS5003;34876;51.464;-0.150;2023-08-12T00:12:17;3;3;
49064;PMS5003;34876;51.464;-0.150;2023-08-12T00:15:04;5;4;
49064;PMS5003;34876;51.464;-0.150;2023-08-12T00:17:45;5;3;
49064;PMS5003;34876;51.464;-0.150;2023-08-12T00:20:23;4;4;
49064;PMS5003;34876;51.464;-0.150;2023-08-12T00:22:51;4;2;
49064;PMS5003;34876;51.464;-0.150;2023-08-12T00:25:20;2;2;
49064;PMS5003;34876;51.464;-0.150;2023-08-12T00:27:50;7;4;
49064;PMS5003;34876;51.464;-0.150;2023-08-12T00:30:21;6;3;
49064;PMS5003;34876;51.464;-0.150;2023-08-12T00:33:01;3;3;
49064;PMS5003;34876;51.464;-0.150;2023-08-12T00:35:37;4;4;
49064;PMS5003;34876;51.464;-0.150;2023-08-12T00:38:08;3;3;
49064;PMS5003;34876;51.464;-0.150;2023-08-12T00:40:42;6;4;
49064;PMS5003;34876;51.464;-0.150;2023-08-12T00:43:12;5;5;
49064;PMS5003;34876;51.464;-0.150;2023-08-12T00:45:42;7;5;
49064;PMS5003;34876;51.464;-0.150;2023-08-12T00:48:12;3;3;
49064;PMS5003;34876;51.464;-0.150;2023-08-12T00:50:43;5;3;
49064;PMS5003;34876;51.464;-0.150;2023-08-12T00:53:15;5;3;
49064;PMS5003;34876;51.464;-0.150;2023-08-12T00:55:46;5;4;
49064;PMS5003;34876;51.464;-0.150;2023-08-12T00:58:20;11;4;
49064;PMS5003;34876;51.464;-0.150;2023-08-12T01:00:49;1;1;
49064;PMS5003;34876;51.464;-0.150;2023-08-12T01:03:22;2;2;
49064;PMS5003;34876;51.464;-0.150;2023-08-12T01:05:52;3;3;
49064;PMS5003;34876;51.464;-0.150;2023-08-12T01:08:22;6;6;
49064;PMS5003;34876;51.464;-0.150;2023-08-12T01:10:58;2;2;
49064;PMS5003;34876;51.464;-0.150;2023-08-12T01:13:33;4;4;
49064;PMS5003;34876;51.464;-0.150;2023-08-12T01:16:14;3;3;
49064;PMS5003;34876;51.464;-0.150;2023-08-12T01:18:46;3;3;
49064;PMS5003;34876;51.464;-0.150;2023-08-12T01:21:33;4;4;
49064;PMS5003;34876;51.464;-0.150;2023-08-12T01:24:13;4;4;
49064;PMS5003;34876;51.464;-0.150;2023-08-12T01:26:42;3;3;
49064;PMS5003;34876;51.464;-0.150;2023-08-12T01:29:11;3;2;
49064;PMS5003;34876;51.464;-0.150;2023-08-12T01:31:45;5;3;
49064;PMS5003;34876;51.464;-0.150;2023-08-12T01:34:21;7;4;
49064;PMS5003;34876;51.464;-0.150;2023-08-12T01:37:01;5;5;
49064;PMS5003;34876;51.464;-0.150;2023-08-12T01:39:39;4;4;
49064;PMS5003;34876;51.464;-0.150;2023-08-12T01:42:09;4;2;
49064;PMS5003;34876;51.464;-0.150;2023-08-12T01:44:40;6;3;
49064;PMS5003;34876;51.464;-0.150;2023-08-12T01:47:09;5;3;
49064;PMS5003;34876;51.464;-0.150;2023-08-12T01:49:38;4;4;
49064;PMS5003;34876;51.464;-0.150;2023-08-12T01:52:07;3;3;
49064;PMS5003;34876;51.464;-0.150;2023-08-12T01:54:37;4;4;
49064;PMS5003;34876;51.464;-0.150;2023-08-12T01:57:07;3;3;
49064;PMS5003;34876;51.464;-0.150;2023-08-12T01:59:36;5;3;
49064;PMS5003;34876;51.464;-0.150;2023-08-12T02:02:11;3;2;
49064;PMS5003;34876;51.464;-0.150;2023-08-12T02:04:41;3;3;
49064;PMS5003;34876;51.464;-0.150;2023-08-12T02:07:23;3;3;
49064;PMS5003;34876;51.464;-0.150;2023-08-12T02:10:02;4;4;
49064;PMS5003;34876;51.464;-0.150;2023-08-12T02:12:31;4;4;
49064;PMS5003;34876;51.464;-0.150;2023-08-12T02:15:00;4;4;
49064;PMS5003;34876;51.464;-0.150;2023-08-12T02:17:30;3;3;
49064;PMS5003;34876;51.464;-0.150;2023-08-12T02:19:59;4;4;
49064;PMS5003;34876;51.464;-0.150;2023-08-12T02:22:29;2;2;
49064;PMS5003;34876;51.464;-0.150;2023-08-12T02:25:10;3;2;
49064;PMS5003;34876;51.464;-0.150;2023-08-12T02:27:45;3;3;
49064;PMS5003;34876;51.464;-0.150;2023-08-12T02:30:14;4;4;
49064;PMS5003;34876;51.464;-0.150;2023-08-12T02:33:13;3;3;
49064;PMS5003;34876;51.464;-0.150;2023-08-12T02:35:43;5;5;
49064;PMS5003;34876;51.464;-0.150;2023-08-12T02:38:13;6;5;
49064;PMS5003;34876;51.464;-0.150;2023-08-12T02:40:49;5;3;
49064;PMS5003;34876;51.464;-0.150;2023-08-12T02:43:20;2;2;
49064;PMS5003;34876;51.464;-0.150;2023-08-12T02:45:50;4;4;
49064;PMS5003;34876;51.464;-0.150;2023-08-12T02:48:22;1;1;
49064;PMS5003;34876;51.464;-0.150;2023-08-12T02:50:53;7;4;
49064;PMS5003;34876;51.464;-0.150;2023-08-12T02:53:34;3;3;
49064;PMS5003;34876;51.464;-0.150;2023-08-12T02:56:03;5;5;
49064;PMS5003;34876;51.464;-0.150;2023-08-12T02:58:32;4;4;
49064;PMS5003;34876;51.464;-0.150;2023-08-12T03:01:03;4;4;
49064;PMS5003;34876;51.464;-0.150;2023-08-12T03:03:33;4;4;
49064;PMS5003;34876;51.464;-0.150;2023-08-12T03:06:01;2;2;
49064;PMS5003;34876;51.464;-0.150;2023-08-12T03:08:31;2;2;
49064;PMS5003;34876;51.464;-0.150;2023-08-12T03:11:00;3;3;
49064;PMS5003;34876;51.464;-0.150;2023-08-12T03:13:29;3;3;
49064;PMS5003;34876;51.464;-0.150;2023-08-12T03:16:12;6;6;
49064;PMS5003;34876;51.464;-0.150;2023-08-12T03:18:48;3;3;
49064;PMS5003;34876;51.464;-0.150;2023-08-12T03:21:18;4;3;
49064;PMS5003;34876;51.464;-0.150;2023-08-12T03:24:00;4;4;
49064;PMS5003;34876;51.464;-0.150;2023-08-12T03:26:31;4;3;
49064;PMS5003;34876;51.464;-0.150;2023-08-12T03:29:03;3;2;
49064;PMS5003;34876;51.464;-0.150;2023-08-12T03:31:49;5;5;
49064;PMS5003;34876;51.464;-0.150;2023-08-12T03:34:23;2;2;
49064;PMS5003;34876;51.464;-0.150;2023-08-12T03:36:53;4;4;
49064;PMS5003;34876;51.464;-0.150;2023-08-12T03:39:29;5;4;
49064;PMS5003;34876;51.464;-0.150;2023-08-12T03:41:59;4;3;
49064;PMS5003;34876;51.464;-0.150;2023-08-12T03:44:29;3;3;
49064;PMS5003;34876;51.464;-0.150;2023-08-12T03:46:58;5;5;
49064;PMS5003;34876;51.464;-0.150;2023-08-12T03:49:28;3;3;
49064;PMS5003;34876;51.464;-0.150;2023-08-12T03:51:59;2;2;
49064;PMS5003;34876;51.464;-0.150;2023-08-12T03:54:30;3;2;
49064;PMS5003;34876;51.464;-0.150;2023-08-12T03:56:59;4;2;
49064;PMS5003;34876;51.464;-0.150;2023-08-12T03:59:47;3;3;
49064;PMS5003;34876;51.464;-0.150;2023-08-12T04:02:21;4;3;
49064;PMS5003;34876;51.464;-0.150;2023-08-12T04:05:09;4;4;
49064;PMS5003;34876;51.464;-0.150;2023-08-12T04:07:37;3;3;
49064;PMS5003;34876;51.464;-0.150;2023-08-12T04:10:06;3;3;
49064;PMS5003;34876;51.464;-0.150;2023-08-12T04:12:37;4;4;
49064;PMS5003;34876;51.464;-0.150;2023-08-12T04:15:14;3;3;
49064;PMS5003;34876;51.464;-0.150;2023-08-12T04:17:48;3;3;
49064;PMS5003;34876;51.464;-0.150;2023-08-12T04:20:18;4;4;
49064;PMS5003;34876;51.464;-0.150;2023-08-12T04:22:54;5;3;
49064;PMS5003;34876;51.464;-0.150;2023-08-12T04:25:24;3;3;
49064;PMS5003;34876;51.464;-0.150;2023-08-12T04:27:54;3;3;
49064;PMS5003;34876;51.464;-0.150;2023-08-12T04:30:24;4;4;
49064;PMS5003;34876;51.464;-0.150;2023-08-12T04:32:53;3;3;
49064;PMS5003;34876;51.464;-0.150;2023-08-12T04:35:24;9;5;
49064;PMS5003;34876;51.464;-0.150;2023-08-12T04:37:53;2;2;
49064;PMS5003;34876;51.464;-0.150;2023-08-12T04:40:23;3;3;
49064;PMS5003;34876;51.464;-0.150;2023-08-12T04:43:01;2;1;
49064;PMS5003;34876;51.464;-0.150;2023-08-12T04:45:30;4;4;
49064;PMS5003;34876;51.464;-0.150;2023-08-12T04:47:59;2;2;
49064;PMS5003;34876;51.464;-0.150;2023-08-12T04:50:30;3;3;
49064;PMS5003;34876;51.464;-0.150;2023-08-12T04:53:03;3;3;
49064;PMS5003;34876;51.464;-0.150;2023-08-12T04:55:38;3;3;
49064;PMS5003;34876;51.464;-0.150;2023-08-12T04:58:07;4;3;
49064;PMS5003;34876;51.464;-0.150;2023-08-12T05:00:38;3;3;
49064;PMS5003;34876;51.464;-0.150;2023-08-12T05:03:07;3;3;
49064;PMS5003;34876;51.464;-0.150;2023-08-12T05:05:37;3;3;
49064;PMS5003;34876;51.464;-0.150;2023-08-12T05:08:06;5;4;
49064;PMS5003;34876;51.464;-0.150;2023-08-12T05:10:36;5;4;
49064;PMS5003;34876;51.464;-0.150;2023-08-12T05:13:06;2;2;
49064;PMS5003;34876;51.464;-0.150;2023-08-12T05:15:38;4;4;
49064;PMS5003;34876;51.464;-0.150;2023-08-12T05:18:07;3;3;
49064;PMS5003;34876;51.464;-0.150;2023-08-12T05:20:36;3;3;
49064;PMS5003;34876;51.464;-0.150;2023-08-12T05:23:05;4;3;
49064;PMS5003;34876;51.464;-0.150;2023-08-12T05:25:34;3;3;
49064;PMS5003;34876;51.464;-0.150;2023-08-12T05:28:09;4;4;
49064;PMS5003;34876;51.464;-0.150;2023-08-12T05:30:38;3;3;
49064;PMS5003;34876;51.464;-0.150;2023-08-12T05:33:16;4;4;
49064;PMS5003;34876;51.464;-0.150;2023-08-12T05:35:47;3;3;
49064;PMS5003;34876;51.464;-0.150;2023-08-12T05:38:15;4;4;
49064;PMS5003;34876;51.464;-0.150;2023-08-12T05:40:44;4;3;
49064;PMS5003;34876;51.464;-0.150;2023-08-12T05:43:15;3;3;
49064;PMS5003;34876;51.464;-0.150;2023-08-12T05:45:44;3;3;
49064;PMS5003;34876;51.464;-0.150;2023-08-12T05:48:14;5;5;
49064;PMS5003;34876;51.464;-0.150;2023-08-12T05:50:49;3;3;
49064;PMS5003;34876;51.464;-0.150;2023-08-12T05:53:21;4;4;
49064;PMS5003;34876;51.464;-0.150;2023-08-12T05:55:51;4;4;
49064;PMS5003;34876;51.464;-0.150;2023-08-12T05:58:19;4;4;
49064;PMS5003;34876;51.464;-0.150;2023-08-12T06:00:50;5;4;
49064;PMS5003;34876;51.464;-0.150;2023-08-12T06:03:25;3;3;
49064;PMS5003;34876;51.464;-0.150;2023-08-12T06:05:53;4;2;
49064;PMS5003;34876;51.464;-0.150;2023-08-12T06:08:22;3;3;
49064;PMS5003;34876;51.464;-0.150;2023-08-12T06:10:51;2;2;
49064;PMS5003;34876;51.464;-0.150;2023-08-12T06:13:20;4;3;
49064;PMS5003;34876;51.464;-0.150;2023-08-12T06:15:55;2;2;
49064;PMS5003;34876;51.464;-0.150;2023-08-12T06:18:24;5;3;
49064;PMS5003;34876;51.464;-0.150;2023-08-12T06:20:54;5;3;
49064;PMS5003;34876;51.464;-0.150;2023-08-12T06:23:24;3;3;
49064;PMS5003;34876;51.464;-0.150;2023-08-12T06:25:53;3;3;
49064;PMS5003;34876;51.464;-0.150;2023-08-12T06:28:22;4;2;
49064;PMS5003;34876;51.464;-0.150;2023-08-12T06:30:51;3;2;
49064;PMS5003;34876;51.464;-0.150;2023-08-12T06:33:21;3;3;
49064;PMS5003;34876;51.464;-0.150;2023-08-12T06:35:51;3;3;
49064;PMS5003;34876;51.464;-0.150;2023-08-12T06:38:21;3;3;
49064;PMS5003;34876;51.464;-0.150;2023-08-12T06:40:50;5;5;
49064;PMS5003;34876;51.464;-0.150;2023-08-12T06:43:34;3;3;
49064;PMS5003;34876;51.464;-0.150;2023-08-12T06:46:03;2;2;
49064;PMS5003;34876;51.464;-0.150;2023-08-12T06:48:32;6;3;
49064;PMS5003;34876;51.464;-0.150;2023-08-12T06:51:02;2;2;
49064;PMS5003;34876;51.464;-0.150;2023-08-12T06:53:31;4;3;
49064;PMS5003;34876;51.464;-0.150;2023-08-12T06:56:00;3;3;
49064;PMS5003;34876;51.464;-0.150;2023-08-12T06:58:28;3;2;
49064;PMS5003;34876;51.464;-0.150;2023-08-12T07:01:01;4;4;
49064;PMS5003;34876;51.464;-0.150;2023-08-12T07:03:31;2;2;
49064;PMS5003;34876;51.464;-0.150;2023-08-12T07:06:01;2;2;
49064;PMS5003;34876;51.464;-0.150;2023-08-12T07:08:31;4;4;
49064;PMS5003;34876;51.464;-0.150;2023-08-12T07:11:00;2;2;
49064;PMS5003;34876;51.464;-0.150;2023-08-12T07:13:30;4;3;
49064;PMS5003;34876;51.464;-0.150;2023-08-12T07:16:00;2;2;
49064;PMS5003;34876;51.464;-0.150;2023-08-12T07:18:29;3;3;
49064;PMS5003;34876;51.464;-0.150;2023-08-12T07:20:59;4;4;
49064;PMS5003;34876;51.464;-0.150;2023-08-12T07:23:29;3;3;
49064;PMS5003;34876;51.464;-0.150;2023-08-12T07:26:02;3;2;
49064;PMS5003;34876;51.464;-0.150;2023-08-12T07:28:33;4;4;
49064;PMS5003;34876;51.464;-0.150;2023-08-12T07:31:01;4;4;
49064;PMS5003;34876;51.464;-0.150;2023-08-12T07:33:31;5;4;
49064;PMS5003;34876;51.464;-0.150;2023-08-12T07:36:02;3;3;
49064;PMS5003;34876;51.464;-0.150;2023-08-12T07:38:31;4;4;
49064;PMS5003;34876;51.464;-0.150;2023-08-12T07:41:00;5;4;
49064;PMS5003;34876;51.464;-0.150;2023-08-12T07:43:30;7;5;
49064;PMS5003;34876;51.464;-0.150;2023-08-12T07:46:00;5;5;
49064;PMS5003;34876;51.464;-0.150;2023-08-12T07:48:30;3;3;
49064;PMS5003;34876;51.464;-0.150;2023-08-12T07:51:00;3;3;
49064;PMS5003;34876;51.464;-0.150;2023-08-12T07:53:30;2;2;
49064;PMS5003;34876;51.464;-0.150;2023-08-12T07:56:05;3;3;
49064;PMS5003;34876;51.464;-0.150;2023-08-12T07:58:34;4;4;
49064;PMS5003;34876;51.464;-0.150;2023-08-12T08:01:02;6;5;
49064;PMS5003;34876;51.464;-0.150;2023-08-12T08:03:33;6;3;
49064;PMS5003;34876;51.464;-0.150;2023-08-12T08:06:03;3;3;
49064;PMS5003;34876;51.464;-0.150;2023-08-12T08:08:34;2;2;
49064;PMS5003;34876;51.464;-0.150;2023-08-12T08:11:10;4;3;
49064;PMS5003;34876;51.464;-0.150;2023-08-12T08:13:40;7;6;
49064;PMS5003;34876;51.464;-0.150;2023-08-12T08:16:10;5;3;
49064;PMS5003;34876;51.464;-0.150;2023-08-12T08:18:40;4;4;
49064;PMS5003;34876;51.464;-0.150;2023-08-12T08:21:09;4;3;
49064;PMS5003;34876;51.464;-0.150;2023-08-12T08:23:40;6;4;
49064;PMS5003;34876;51.464;-0.150;2023-08-12T08:26:09;4;4;
49064;PMS5003;34876;51.464;-0.150;2023-08-12T08:28:40;3;3;
49064;PMS5003;34876;51.464;-0.150;2023-08-12T08:31:15;3;3;
49064;PMS5003;34876;51.464;-0.150;2023-08-12T08:33:49;4;4;
49064;PMS5003;34876;51.464;-0.150;2023-08-12T08:36:20;4;4;
49064;PMS5003;34876;51.464;-0.150;2023-08-12T08:38:50;4;4;
49064;PMS5003;34876;51.464;-0.150;2023-08-12T08:41:19;4;4;
49064;PMS5003;34876;51.464;-0.150;2023-08-12T08:44:02;3;3;
49064;PMS5003;34876;51.464;-0.150;2023-08-12T08:46:41;4;2;
49064;PMS5003;34876;51.464;-0.150;2023-08-12T08:49:14;3;3;
49064;PMS5003;34876;51.464;-0.150;2023-08-12T08:51:49;4;3;
49064;PMS5003;34876;51.464;-0.150;2023-08-12T08:54:20;5;5;
49064;PMS5003;34876;51.464;-0.150;2023-08-12T08:56:50;5;5;
49064;PMS5003;34876;51.464;-0.150;2023-08-12T08:59:20;4;4;
49064;PMS5003;34876;51.464;-0.150;2023-08-12T09:01:50;5;4;
49064;PMS5003;34876;51.464;-0.150;2023-08-12T09:04:22;2;2;
49064;PMS5003;34876;51.464;-0.150;2023-08-12T09:06:52;6;5;
49064;PMS5003;34876;51.464;-0.150;2023-08-12T09:09:23;5;4;
49064;PMS5003;34876;51.464;-0.150;2023-08-12T09:11:56;5;5;
49064;PMS5003;34876;51.464;-0.150;2023-08-12T09:14:26;5;5;
49064;PMS5003;34876;51.464;-0.150;2023-08-12T09:16:56;4;4;
49064;PMS5003;34876;51.464;-0.150;2023-08-12T09:19:26;4;4;
49064;PMS5003;34876;51.464;-0.150;2023-08-12T09:21:58;4;4;
49064;PMS5003;34876;51.464;-0.150;2023-08-12T09:24:27;5;5;
49064;PMS5003;34876;51.464;-0.150;2023-08-12T09:27:09;6;5;
49064;PMS5003;34876;51.464;-0.150;2023-08-12T09:29:55;4;4;
49064;PMS5003;34876;51.464;-0.150;2023-08-12T09:32:27;6;6;
49064;PMS5003;34876;51.464;-0.150;2023-08-12T09:34:58;5;5;
49064;PMS5003;34876;51.464;-0.150;2023-08-12T09:37:27;5;5;
49064;PMS5003;34876;51.464;-0.150;2023-08-12T09:39:57;5;2;
49064;PMS5003;34876;51.464;-0.150;2023-08-12T09:42:31;10;10;
49064;PMS5003;34876;51.464;-0.150;2023-08-12T09:45:01;7;6;
49064;PMS5003;34876;51.464;-0.150;2023-08-12T09:47:31;6;6;
49064;PMS5003;34876;51.464;-0.150;2023-08-12T09:50:02;6;4;
49064;PMS5003;34876;51.464;-0.150;2023-08-12T09:52:40;5;5;
49064;PMS5003;34876;51.464;-0.150;2023-08-12T09:55:10;7;6;
49064;PMS5003;34876;51.464;-0.150;2023-08-12T09:57:40;7;5;
49064;PMS5003;34876;51.464;-0.150;2023-08-12T10:00:13;5;5;
49064;PMS5003;34876;51.464;-0.150;2023-08-12T10:02:44;8;7;
49064;PMS5003;34876;51.464;-0.150;2023-08-12T10:05:31;7;7;
49064;PMS5003;34876;51.464;-0.150;2023-08-12T10:08:01;5;5;
49064;PMS5003;34876;51.464;-0.150;2023-08-12T10:10:37;7;5;
49064;PMS5003;34876;51.464;-0.150;2023-08-12T10:13:09;7;7;
49064;PMS5003;34876;51.464;-0.150;2023-08-12T10:15:47;4;4;
49064;PMS5003;34876;51.464;-0.150;2023-08-12T10:18:18;5;4;
49064;PMS5003;34876;51.464;-0.150;2023-08-12T10:20:48;8;6;
49064;PMS5003;34876;51.464;-0.150;2023-08-12T10:23:20;7;7;
49064;PMS5003;34876;51.464;-0.150;2023-08-12T10:25:57;7;6;
49064;PMS5003;34876;51.464;-0.150;2023-08-12T10:28:29;5;5;
49064;PMS5003;34876;51.464;-0.150;2023-08-12T10:30:59;7;7;
49064;PMS5003;34876;51.464;-0.150;2023-08-12T10:33:30;5;5;
49064;PMS5003;34876;51.464;-0.150;2023-08-12T10:36:04;8;7;
49064;PMS5003;34876;51.464;-0.150;2023-08-12T10:38:34;7;6;
49064;PMS5003;34876;51.464;-0.150;2023-08-12T10:41:20;7;7;
49064;PMS5003;34876;51.464;-0.150;2023-08-12T10:43:55;9;9;
49064;PMS5003;34876;51.464;-0.150;2023-08-12T10:46:32;7;5;
49064;PMS5003;34876;51.464;-0.150;2023-08-12T10:49:03;7;6;
49064;PMS5003;34876;51.464;-0.150;2023-08-12T10:51:43;6;6;
49064;PMS5003;34876;51.464;-0.150;2023-08-12T10:54:14;8;6;
49064;PMS5003;34876;51.464;-0.150;2023-08-12T10:57:17;8;7;
49064;PMS5003;34876;51.464;-0.150;2023-08-12T10:59:48;10;8;
49064;PMS5003;34876;51.464;-0.150;2023-08-12T11:02:20;8;7;
49064;PMS5003;34876;51.464;-0.150;2023-08-12T11:04:55;8;7;
49064;PMS5003;34876;51.464;-0.150;2023-08-12T11:07:32;7;7;
49064;PMS5003;34876;51.464;-0.150;2023-08-12T11:10:04;10;10;
49064;PMS5003;34876;51.464;-0.150;2023-08-12T11:12:39;8;8;
49064;PMS5003;34876;51.464;-0.150;2023-08-12T11:15:10;7;7;
49064;PMS5003;34876;51.464;-0.150;2023-08-12T11:17:41;8;8;
49064;PMS5003;34876;51.464;-0.150;2023-08-12T11:20:10;10;7;
49064;PMS5003;34876;51.464;-0.150;2023-08-12T11:22:40;8;7;
49064;PMS5003;34876;51.464;-0.150;2023-08-12T11:25:13;7;6;
49064;PMS5003;34876;51.464;-0.150;2023-08-12T11:27:44;7;7;
49064;PMS5003;34876;51.464;-0.150;2023-08-12T11:30:15;7;7;
49064;PMS5003;34876;51.464;-0.150;2023-08-12T11:32:46;8;7;
49064;PMS5003;34876;51.464;-0.150;2023-08-12T11:35:19;6;6;
49064;PMS5003;34876;51.464;-0.150;2023-08-12T11:37:55;9;6;
49064;PMS5003;34876;51.464;-0.150;2023-08-12T11:40:26;8;8;
49064;PMS5003;34876;51.464;-0.150;2023-08-12T11:42:57;10;8;
49064;PMS5003;34876;51.464;-0.150;2023-08-12T11:45:26;11;10;
49064;PMS5003;34876;51.464;-0.150;2023-08-12T11:47:56;7;6;
49064;PMS5003;34876;51.464;-0.150;2023-08-12T11:50:30;8;8;
49064;PMS5003;34876;51.464;-0.150;2023-08-12T11:53:03;8;8;
49064;PMS5003;34876;51.464;-0.150;2023-08-12T11:55:44;6;6;
49064;PMS5003;34876;51.464;-0.150;2023-08-12T11:58:14;8;8;
49064;PMS5003;34876;51.464;-0.150;2023-08-12T12:00:43;7;7;
49064;PMS5003;34876;51.464;-0.150;2023-08-12T12:03:12;10;8;
49064;PMS5003;34876;51.464;-0.150;2023-08-12T12:05:46;8;7;
49064;PMS5003;34876;51.464;-0.150;2023-08-12T12:08:23;7;7;
49064;PMS5003;34876;51.464;-0.150;2023-08-12T12:10:53;8;8;
49064;PMS5003;34876;51.464;-0.150;2023-08-12T12:13:24;7;7;
49064;PMS5003;34876;51.464;-0.150;2023-08-12T12:15:54;9;9;
49064;PMS5003;34876;51.464;-0.150;2023-08-12T12:18:24;8;7;
49064;PMS5003;34876;51.464;-0.150;2023-08-12T12:20:55;6;6;
49064;PMS5003;34876;51.464;-0.150;2023-08-12T12:23:27;7;7;
49064;PMS5003;34876;51.464;-0.150;2023-08-12T12:25:59;7;6;
49064;PMS5003;34876;51.464;-0.150;2023-08-12T12:28:29;7;7;
49064;PMS5003;34876;51.464;-0.150;2023-08-12T12:31:11;9;7;
49064;PMS5003;34876;51.464;-0.150;2023-08-12T12:33:41;7;7;
49064;PMS5003;34876;51.464;-0.150;2023-08-12T12:36:10;8;8;
49064;PMS5003;34876;51.464;-0.150;2023-08-12T12:38:40;8;8;
49064;PMS5003;34876;51.464;-0.150;2023-08-12T12:41:08;9;9;
49064;PMS5003;34876;51.464;-0.150;2023-08-12T12:43:38;10;10;
49064;PMS5003;34876;51.464;-0.150;2023-08-12T12:46:07;8;6;
49064;PMS5003;34876;51.464;-0.150;2023-08-12T12:48:37;9;9;
49064;PMS5003;34876;51.464;-0.150;2023-08-12T12:51:06;8;8;
49064;PMS5003;34876;51.464;-0.150;2023-08-12T12:53:36;8;8;
49064;PMS5003;34876;51.464;-0.150;2023-08-12T12:56:05;10;10;
49064;PMS5003;34876;51.464;-0.150;2023-08-12T12:58:35;7;7;
49064;PMS5003;34876;51.464;-0.150;2023-08-12T13:01:11;7;7;
49064;PMS5003;34876;51.464;-0.150;2023-08-12T13:03:40;10;9;
49064;PMS5003;34876;51.464;-0.150;2023-08-12T13:06:10;8;8;
49064;PMS5003;34876;51.464;-0.150;2023-08-12T13:08:39;10;10;
49064;PMS5003;34876;51.464;-0.150;2023-08-12T13:11:09;12;9;
49064;PMS5003;34876;51.464;-0.150;2023-08-12T13:13:44;8;7;
49064;PMS5003;34876;51.464;-0.150;2023-08-12T13:16:13;10;8;
49064;PMS5003;34876;51.464;-0.150;2023-08-12T13:18:42;7;6;
49064;PMS5003;34876;51.464;-0.150;2023-08-12T13:21:11;8;6;
49064;PMS5003;34876;51.464;-0.150;2023-08-12T13:23:40;8;7;
49064;PMS5003;34876;51.464;-0.150;2023-08-12T13:26:09;11;11;
49064;PMS5003;34876;51.464;-0.150;2023-08-12T13:28:39;6;6;
49064;PMS5003;34876;51.464;-0.150;2023-08-12T13:31:17;7;7;
49064;PMS5003;34876;51.464;-0.150;2023-08-12T13:33:52;7;7;
49064;PMS5003;34876;51.464;-0.150;2023-08-12T13:36:21;9;9;
49064;PMS5003;34876;51.464;-0.150;2023-08-12T13:38:50;9;8;
49064;PMS5003;34876;51.464;-0.150;2023-08-12T13:41:20;9;8;
49064;PMS5003;34876;51.464;-0.150;2023-08-12T13:43:49;10;10;
49064;PMS5003;34876;51.464;-0.150;2023-08-12T13:46:19;6;6;
49064;PMS5003;34876;51.464;-0.150;2023-08-12T13:48:48;9;7;
49064;PMS5003;34876;51.464;-0.150;2023-08-12T13:51:18;10;10;
49064;PMS5003;34876;51.464;-0.150;2023-08-12T13:53:46;12;10;
49064;PMS5003;34876;51.464;-0.150;2023-08-12T13:56:16;8;7;
49064;PMS5003;34876;51.464;-0.150;2023-08-12T13:58:46;5;5;
49064;PMS5003;34876;51.464;-0.150;2023-08-12T14:01:16;7;7;
49064;PMS5003;34876;51.464;-0.150;2023-08-12T14:03:44;9;9;
49064;PMS5003;34876;51.464;-0.150;2023-08-12T14:06:14;8;6;
49064;PMS5003;34876;51.464;-0.150;2023-08-12T14:08:43;11;9;
49064;PMS5003;34876;51.464;-0.150;2023-08-12T14:11:12;7;7;
49064;PMS5003;34876;51.464;-0.150;2023-08-12T14:13:42;9;9;
49064;PMS5003;34876;51.464;-0.150;2023-08-12T14:16:11;10;10;
49064;PMS5003;34876;51.464;-0.150;2023-08-12T14:18:45;11;9;
49064;PMS5003;34876;51.464;-0.150;2023-08-12T14:21:16;10;9;
49064;PMS5003;34876;51.464;-0.150;2023-08-12T14:23:45;10;10;
49064;PMS5003;34876;51.464;-0.150;2023-08-12T14:26:14;10;8;
49064;PMS5003;34876;51.464;-0.150;2023-08-12T14:28:45;13;12;
49064;PMS5003;34876;51.464;-0.150;2023-08-12T14:31:14;11;9;
49064;PMS5003;34876;51.464;-0.150;2023-08-12T14:33:50;8;8;
49064;PMS5003;34876;51.464;-0.150;2023-08-12T14:36:20;10;9;
49064;PMS5003;34876;51.464;-0.150;2023-08-12T14:38:49;10;10;
49064;PMS5003;34876;51.464;-0.150;2023-08-12T14:41:19;11;9;
49064;PMS5003;34876;51.464;-0.150;2023-08-12T14:43:49;11;10;
49064;PMS5003;34876;51.464;-0.150;2023-08-12T14:46:20;13;10;
49064;PMS5003;34876;51.464;-0.150;2023-08-12T14:48:49;10;10;
49064;PMS5003;34876;51.464;-0.150;2023-08-12T14:51:20;11;11;
49064;PMS5003;34876;51.464;-0.150;2023-08-12T14:53:50;9;9;
49064;PMS5003;34876;51.464;-0.150;2023-08-12T14:56:20;8;8;
49064;PMS5003;34876;51.464;-0.150;2023-08-12T14:58:50;9;9;
49064;PMS5003;34876;51.464;-0.150;2023-08-12T15:01:19;11;11;
49064;PMS5003;34876;51.464;-0.150;2023-08-12T15:03:48;11;10;
49064;PMS5003;34876;51.464;-0.150;2023-08-12T15:06:17;9;9;
49064;PMS5003;34876;51.464;-0.150;2023-08-12T15:08:46;9;9;
49064;PMS5003;34876;51.464;-0.150;2023-08-12T15:11:16;10;10;
49064;PMS5003;34876;51.464;-0.150;2023-08-12T15:13:46;9;9;
49064;PMS5003;34876;51.464;-0.150;2023-08-12T15:16:15;10;10;
49064;PMS5003;34876;51.464;-0.150;2023-08-12T15:18:45;10;10;
49064;PMS5003;34876;51.464;-0.150;2023-08-12T15:21:14;12;11;
49064;PMS5003;34876;51.464;-0.150;2023-08-12T15:23:45;11;11;
49064;PMS5003;34876;51.464;-0.150;2023-08-12T15:26:15;12;11;
49064;PMS5003;34876;51.464;-0.150;2023-08-12T15:28:44;9;9;
49064;PMS5003;34876;51.464;-0.150;2023-08-12T15:31:15;14;11;
49064;PMS5003;34876;51.464;-0.150;2023-08-12T15:33:50;15;12;
49064;PMS5003;34876;51.464;-0.150;2023-08-12T15:36:19;10;10;
49064;PMS5003;34876;51.464;-0.150;2023-08-12T15:38:48;11;11;
49064;PMS5003;34876;51.464;-0.150;2023-08-12T15:41:20;13;10;
49064;PMS5003;34876;51.464;-0.150;2023-08-12T15:43:58;11;11;
49064;PMS5003;34876;51.464;-0.150;2023-08-12T15:46:28;11;11;
49064;PMS5003;34876;51.464;-0.150;2023-08-12T15:48:57;11;10;
49064;PMS5003;34876;51.464;-0.150;2023-08-12T15:51:26;10;10;
49064;PMS5003;34876;51.464;-0.150;2023-08-12T15:53:55;14;11;
49064;PMS5003;34876;51.464;-0.150;2023-08-12T15:56:33;10;10;
49064;PMS5003;34876;51.464;-0.150;2023-08-12T15:59:04;7;7;
49064;PMS5003;34876;51.464;-0.150;2023-08-12T16:01:40;9;9;
49064;PMS5003;34876;51.464;-0.150;2023-08-12T16:04:13;9;9;
49064;PMS5003;34876;51.464;-0.150;2023-08-12T16:06:42;12;11;
49064;PMS5003;34876;51.464;-0.150;2023-08-12T16:09:18;12;10;
49064;PMS5003;34876;51.464;-0.150;2023-08-12T16:11:52;7;7;
49064;PMS5003;34876;51.464;-0.150;2023-08-12T16:14:21;10;9;
49064;PMS5003;34876;51.464;-0.150;2023-08-12T16:16:50;12;12;
49064;PMS5003;34876;51.464;-0.150;2023-08-12T16:19:30;14;11;
49064;PMS5003;34876;51.464;-0.150;2023-08-12T16:22:05;10;9;
49064;PMS5003;34876;51.464;-0.150;2023-08-12T16:24:35;8;7;
49064;PMS5003;34876;51.464;-0.150;2023-08-12T16:27:05;11;11;
49064;PMS5003;34876;51.464;-0.150;2023-08-12T16:29:35;9;8;
49064;PMS5003;34876;51.464;-0.150;2023-08-12T16:32:05;11;11;
49064;PMS5003;34876;51.464;-0.150;2023-08-12T16:34:36;9;8;
49064;PMS5003;34876;51.464;-0.150;2023-08-12T16:37:04;7;7;
49064;PMS5003;34876;51.464;-0.150;2023-08-12T16:39:33;8;8;
49064;PMS5003;34876;51.464;-0.150;2023-08-12T16:42:03;12;10;
49064;PMS5003;34876;51.464;-0.150;2023-08-12T16:44:32;9;9;
49064;PMS5003;34876;51.464;-0.150;2023-08-12T16:47:03;6;6;
49064;PMS5003;34876;51.464;-0.150;2023-08-12T16:49:31;13;11;
49064;PMS5003;34876;51.464;-0.150;2023-08-12T16:52:01;9;9;
49064;PMS5003;34876;51.464;-0.150;2023-08-12T16:54:31;11;11;
49064;PMS5003;34876;51.464;-0.150;2023-08-12T16:57:00;10;9;
49064;PMS5003;34876;51.464;-0.150;2023-08-12T16:59:33;6;6;
49064;PMS5003;34876;51.464;-0.150;2023-08-12T17:02:03;7;7;